Time;durP1;ratioP1;P1;durP2;ratioP2;P2;SDS_P1;SDS_P2;PMS_P1;PMS_P2;Temp;Humidity;BMP_temperature;BMP_pressure;BME280_temperature;BME280_humidity;BME280_pressure;Samples;Min_cycle;Max_cycle;Signal;HPM_P1;HPM_P2
2022/03/26 00:02:05;;;;;;;;;52.00;26.50;;;;;;;;2;261078304;261078304;-83
2022/03/26 00:11:05;;;;;;;;;55.00;38.50;;;;;;;;2;261076147;261076147;-84
2022/03/26 00:19:21;;;;;;;;;40.50;36.50;;;;;;;;2;261079278;261079278;-83
2022/03/26 00:28:21;;;;;;;;;49.50;36.50;;;;;;;;2;261075651;261075651;-83
2022/03/26 00:36:37;;;;;;;;;53.50;39.00;;;;;;;;2;261077876;261077876;-83
2022/03/26 00:45:37;;;;;;;;;59.00;31.50;;;;;;;;2;261078842;261078842;-83
2022/03/26 00:53:52;;;;;;;;;53.00;36.00;;;;;;;;2;261075934;261075934;-83
2022/03/26 01:02:53;;;;;;;;;63.50;40.50;;;;;;;;2;261074920;261074920;-83
2022/03/26 01:11:09;;;;;;;;;38.50;35.00;;;;;;;;2;261077331;261077331;-83
2022/03/26 01:20:09;;;;;;;;;49.00;38.00;;;;;;;;2;261078091;261078091;-83
2022/03/26 01:28:26;;;;;;;;;48.50;33.50;;;;;;;;2;261078431;261078431;-83
2022/03/26 01:37:26;;;;;;;;;47.50;38.50;;;;;;;;2;261077264;261077264;-83
2022/03/26 01:45:42;;;;;;;;;38.00;32.00;;;;;;;;2;261074474;261074474;-83
2022/03/26 01:54:43;;;;;;;;;20.50;20.50;;;;;;;;2;261077375;261077375;-83
2022/03/26 02:02:59;;;;;;;;;44.50;38.50;;;;;;;;2;261075785;261075785;-84
2022/03/26 02:11:59;;;;;;;;;42.50;35.50;;;;;;;;2;261078431;261078431;-84
2022/03/26 02:20:15;;;;;;;;;53.00;39.50;;;;;;;;2;261077580;261077580;-84
2022/03/26 02:29:16;;;;;;;;;56.50;38.00;;;;;;;;2;261074984;261074984;-84
2022/03/26 02:37:31;;;;;;;;;56.50;35.00;;;;;;;;2;261076976;261076976;-84
2022/03/26 02:46:32;;;;;;;;;60.50;39.50;;;;;;;;2;261076935;261076935;-84
2022/03/26 02:54:47;;;;;;;;;50.50;37.50;;;;;;;;2;261075566;261075566;-84
2022/03/26 03:03:48;;;;;;;;;63.50;38.00;;;;;;;;2;261077223;261077223;-84
2022/03/26 03:12:04;;;;;;;;;60.00;43.00;;;;;;;;2;261077509;261077509;-84
2022/03/26 03:21:04;;;;;;;;;49.00;33.00;;;;;;;;2;261078793;261078793;-84
2022/03/26 03:29:19;;;;;;;;;51.50;39.50;;;;;;;;2;261077806;261077806;-84
2022/03/26 03:38:20;;;;;;;;;47.50;33.00;;;;;;;;2;261075666;261075666;-84
2022/03/26 03:46:35;;;;;;;;;36.00;31.00;;;;;;;;2;261076295;261076295;-84
2022/03/26 03:55:36;;;;;;;;;49.00;35.50;;;;;;;;2;261075892;261075892;-84
2022/03/26 04:03:51;;;;;;;;;50.00;40.00;;;;;;;;2;261074114;261074114;-84
2022/03/26 04:12:52;;;;;;;;;32.00;31.00;;;;;;;;2;261076447;261076447;-84
2022/03/26 04:21:07;;;;;;;;;59.00;33.50;;;;;;;;2;261079367;261079367;-84
2022/03/26 04:30:08;;;;;;;;;35.50;30.50;;;;;;;;2;261078555;261078555;-84
2022/03/26 04:38:23;;;;;;;;;9.00;0.50;;;;;;;;2;261075778;261075778;-84
2022/03/26 04:47:24;;;;;;;;;63.50;41.00;;;;;;;;2;261076864;261076864;-84
2022/03/26 04:55:39;;;;;;;;;48.50;41.00;;;;;;;;2;261074626;261074626;-84
2022/03/26 05:04:40;;;;;;;;;49.50;30.50;;;;;;;;2;261077065;261077065;-84
2022/03/26 05:12:56;;;;;;;;;40.50;36.50;;;;;;;;2;261078291;261078291;-84
2022/03/26 05:21:56;;;;;;;;;36.00;30.50;;;;;;;;2;261074886;261074886;-84
2022/03/26 05:30:12;;;;;;;;;55.00;39.50;;;;;;;;2;261076877;261076877;-84
2022/03/26 05:39:13;;;;;;;;;49.50;35.00;;;;;;;;2;261079631;261079631;-84
2022/03/26 05:47:29;;;;;;;;;37.50;34.00;;;;;;;;2;261076971;261076971;-84
2022/03/26 05:56:30;;;;;;;;;39.00;35.50;;;;;;;;2;261074607;261074607;-84
2022/03/26 06:04:45;;;;;;;;;67.50;27.00;;;;;;;;2;261075146;261075146;-84
2022/03/26 06:13:46;;;;;;;;;51.00;39.50;;;;;;;;2;261077530;261077530;-84
2022/03/26 06:22:01;;;;;;;;;54.50;42.00;;;;;;;;2;261075633;261075633;-84
2022/03/26 06:31:02;;;;;;;;;42.00;35.00;;;;;;;;2;261072158;261072158;-83
2022/03/26 06:39:17;;;;;;;;;51.00;37.50;;;;;;;;2;261073691;261073691;-84
2022/03/26 06:48:17;;;;;;;;;45.00;35.50;;;;;;;;2;261075223;261075223;-84
2022/03/26 06:56:34;;;;;;;;;42.00;37.50;;;;;;;;2;261075407;261075407;-84
2022/03/26 07:05:34;;;;;;;;;44.00;33.00;;;;;;;;2;261077769;261077769;-84
2022/03/26 07:13:49;;;;;;;;;37.00;29.50;;;;;;;;2;261077845;261077845;-84
2022/03/26 07:22:50;;;;;;;;;59.50;35.00;;;;;;;;2;261080156;261080156;-83
2022/03/26 07:31:34;;;;;;;;;51.50;37.00;;;;;;;;2;261076848;261076848;-81
2022/03/26 07:49:39;;;;;;;;;53.50;40.00;;;;;;;;2;261077466;261077466;-84
2022/03/26 07:58:40;;;;;;;;;54.00;38.50;;;;;;;;2;261076361;261076361;-89
2022/03/26 08:06:55;;;;;;;;;57.00;42.50;;;;;;;;2;261079395;261079395;-84
2022/03/26 08:15:56;;;;;;;;;49.00;39.50;;;;;;;;2;261077545;261077545;-87
2022/03/26 08:24:12;;;;;;;;;47.00;38.50;;;;;;;;2;261079549;261079549;-89
2022/03/26 08:33:13;;;;;;;;;50.50;33.50;;;;;;;;2;261080041;261080041;-87
2022/03/26 08:41:28;;;;;;;;;43.00;38.00;;;;;;;;2;261076438;261076438;-88
2022/03/26 08:50:29;;;;;;;;;51.50;37.00;;;;;;;;2;261078606;261078606;-91
2022/03/26 08:58:44;;;;;;;;;34.50;32.50;;;;;;;;2;261078977;261078977;-89
2022/03/26 09:07:45;;;;;;;;;39.00;32.00;;;;;;;;2;261076352;261076352;-89
2022/03/26 09:16:01;;;;;;;;;41.00;36.50;;;;;;;;2;261076507;261076507;-89
2022/03/26 09:25:02;;;;;;;;;36.50;33.50;;;;;;;;2;261076958;261076958;-89
2022/03/26 09:33:18;;;;;;;;;37.00;34.00;;;;;;;;2;261074554;261074554;-90
2022/03/26 09:42:18;;;;;;;;;40.50;35.00;;;;;;;;2;261076010;261076010;-90
2022/03/26 09:50:34;;;;;;;;;51.50;35.00;;;;;;;;2;261074446;261074446;-90
2022/03/26 09:59:35;;;;;;;;;46.00;38.00;;;;;;;;2;261078710;261078710;-90
2022/03/26 10:07:51;;;;;;;;;47.50;28.50;;;;;;;;2;261080108;261080108;-92
2022/03/26 10:16:51;;;;;;;;;40.00;36.00;;;;;;;;2;261072865;261072865;-91
2022/03/26 10:25:12;;;;;;;;;28.50;27.00;;;;;;;;2;261075427;261075427;-93
2022/03/26 10:34:14;;;;;;;;;26.50;26.50;;;;;;;;2;261075032;261075032;-89
2022/03/26 10:42:31;;;;;;;;;38.50;35.00;;;;;;;;2;261077847;261077847;-91
2022/03/26 10:51:35;;;;;;;;;40.00;36.00;;;;;;;;2;261073449;261073449;-88
2022/03/26 10:59:51;;;;;;;;;38.50;35.00;;;;;;;;2;261075244;261075244;-88
2022/03/26 11:08:59;;;;;;;;;42.00;37.50;;;;;;;;2;261074707;261074707;-88
2022/03/26 11:17:29;;;;;;;;;36.50;27.00;;;;;;;;2;261076743;261076743;-88
2022/03/26 11:26:49;;;;;;;;;46.50;32.50;;;;;;;;2;261078982;261078982;-88
2022/03/26 11:35:08;;;;;;;;;51.00;43.50;;;;;;;;2;261078493;261078493;-88
2022/03/26 11:44:09;;;;;;;;;39.50;35.00;;;;;;;;2;261079262;261079262;-88
2022/03/26 11:52:27;;;;;;;;;53.00;39.50;;;;;;;;2;261076850;261076850;-88
2022/03/26 12:01:34;;;;;;;;;54.50;33.00;;;;;;;;2;261077614;261077614;-88
2022/03/26 12:10:03;;;;;;;;;37.00;23.50;;;;;;;;2;261075982;261075982;-88
2022/03/26 12:19:05;;;;;;;;;23.00;23.00;;;;;;;;2;261078174;261078174;-87
2022/03/26 12:27:21;;;;;;;;;64.50;42.00;;;;;;;;2;261077358;261077358;-87
2022/03/26 12:36:22;;;;;;;;;41.50;36.00;;;;;;;;2;261074315;261074315;-87
2022/03/26 12:44:37;;;;;;;;;42.00;37.00;;;;;;;;2;261078727;261078727;-87
2022/03/26 12:53:39;;;;;;;;;50.50;36.50;;;;;;;;2;261075784;261075784;-87
2022/03/26 13:02:00;;;;;;;;;39.00;35.50;;;;;;;;2;261076087;261076087;-87
2022/03/26 13:11:05;;;;;;;;;38.50;34.00;;;;;;;;2;261077757;261077757;-87
2022/03/26 13:19:20;;;;;;;;;52.00;37.00;;;;;;;;2;261075747;261075747;-87
2022/03/26 13:28:23;;;;;;;;;33.00;31.50;;;;;;;;2;261077940;261077940;-86
2022/03/26 13:36:38;;;;;;;;;32.50;31.00;;;;;;;;2;261072906;261072906;-86
2022/03/26 13:45:41;;;;;;;;;34.50;32.00;;;;;;;;2;261079210;261079210;-87
2022/03/26 13:53:59;;;;;;;;;25.50;25.00;;;;;;;;2;261075946;261075946;-85
2022/03/26 14:03:02;;;;;;;;;29.00;24.50;;;;;;;;2;261078825;261078825;-85
2022/03/26 14:11:18;;;;;;;;;30.00;28.50;;;;;;;;2;261079012;261079012;-85
2022/03/26 14:20:18;;;;;;;;;25.00;24.50;;;;;;;;2;261077227;261077227;-85
2022/03/26 14:28:34;;;;;;;;;37.50;31.00;;;;;;;;2;261079286;261079286;-85
2022/03/26 14:37:34;;;;;;;;;27.50;24.00;;;;;;;;2;261075200;261075200;-85
2022/03/26 14:45:53;;;;;;;;;40.50;33.50;;;;;;;;2;261077470;261077470;-86
2022/03/26 14:54:54;;;;;;;;;26.50;26.00;;;;;;;;2;261078326;261078326;-86
2022/03/26 15:03:09;;;;;;;;;29.50;16.50;;;;;;;;2;261079826;261079826;-85
2022/03/26 15:12:09;;;;;;;;;28.50;27.00;;;;;;;;2;261077612;261077612;-85
2022/03/26 15:20:25;;;;;;;;;37.50;26.00;;;;;;;;2;261079386;261079386;-85
2022/03/26 15:29:25;;;;;;;;;24.50;24.50;;;;;;;;2;261079382;261079382;-85
2022/03/26 15:37:41;;;;;;;;;43.50;27.50;;;;;;;;2;261075191;261075191;-86
2022/03/26 15:46:41;;;;;;;;;25.00;25.00;;;;;;;;2;261077852;261077852;-84
2022/03/26 15:54:57;;;;;;;;;33.00;31.50;;;;;;;;2;261084661;261084661;-90
2022/03/26 16:03:57;;;;;;;;;21.00;21.00;;;;;;;;2;261076767;261076767;-94
2022/03/26 16:12:13;;;;;;;;;27.50;27.50;;;;;;;;2;261079495;261079495;-91
2022/03/26 16:21:15;;;;;;;;;24.00;20.00;;;;;;;;2;261072023;261072023;-90
2022/03/26 16:29:30;;;;;;;;;28.00;28.00;;;;;;;;2;261074984;261074984;-90
2022/03/26 16:38:31;;;;;;;;;17.00;17.00;;;;;;;;2;261077211;261077211;-88
2022/03/26 16:46:47;;;;;;;;;31.50;20.50;;;;;;;;2;261078549;261078549;-94
2022/03/26 16:55:48;;;;;;;;;17.50;14.50;;;;;;;;2;261076188;261076188;-91
2022/03/26 17:04:04;;;;;;;;;27.00;15.00;;;;;;;;2;261079938;261079938;-84
2022/03/26 17:13:05;;;;;;;;;12.00;8.00;;;;;;;;2;261086571;261086571;-88
2022/03/26 17:21:20;;;;;;;;;17.00;15.00;;;;;;;;2;261079358;261079358;-87
2022/03/26 17:30:20;;;;;;;;;17.00;13.00;;;;;;;;2;261077882;261077882;-92
2022/03/26 17:38:36;;;;;;;;;21.50;15.00;;;;;;;;2;261082431;261082431;-86
2022/03/26 17:47:36;;;;;;;;;14.00;14.00;;;;;;;;2;261085788;261085788;-86
2022/03/26 17:55:52;;;;;;;;;25.50;17.00;;;;;;;;2;261077587;261077587;-83
2022/03/26 18:04:53;;;;;;;;;27.50;15.50;;;;;;;;2;261076761;261076761;-85
2022/03/26 18:13:08;;;;;;;;;15.00;15.00;;;;;;;;2;261076441;261076441;-84
2022/03/26 18:22:08;;;;;;;;;13.50;13.50;;;;;;;;2;261075940;261075940;-84
2022/03/26 18:30:24;;;;;;;;;32.00;21.00;;;;;;;;2;261081915;261081915;-85
2022/03/26 18:39:24;;;;;;;;;20.00;6.00;;;;;;;;2;261084249;261084249;-86
2022/03/26 18:47:40;;;;;;;;;27.50;16.50;;;;;;;;2;261082059;261082059;-86
2022/03/26 18:56:40;;;;;;;;;18.00;18.00;;;;;;;;2;261092001;261092001;-84
2022/03/26 19:04:56;;;;;;;;;21.50;21.50;;;;;;;;2;261110034;261110034;-85
2022/03/26 19:13:56;;;;;;;;;19.00;19.00;;;;;;;;2;261078220;261078220;-85
2022/03/26 19:22:12;;;;;;;;;29.00;17.00;;;;;;;;2;261077330;261077330;-88
2022/03/26 19:31:13;;;;;;;;;37.00;34.00;;;;;;;;2;261074871;261074871;-82
2022/03/26 19:39:29;;;;;;;;;43.00;30.50;;;;;;;;2;261079001;261079001;-85
2022/03/26 19:48:29;;;;;;;;;27.50;27.50;;;;;;;;2;261082091;261082091;-85
2022/03/26 19:56:45;;;;;;;;;35.00;31.50;;;;;;;;2;261076758;261076758;-85
2022/03/26 20:05:45;;;;;;;;;39.00;23.00;;;;;;;;2;261079623;261079623;-85
2022/03/26 20:14:01;;;;;;;;;33.50;18.50;;;;;;;;2;261078116;261078116;-87
2022/03/26 20:23:01;;;;;;;;;18.00;7.00;;;;;;;;2;261082944;261082944;-85
2022/03/26 20:31:16;;;;;;;;;20.50;20.50;;;;;;;;2;261078892;261078892;-85
2022/03/26 20:40:17;;;;;;;;;28.50;22.50;;;;;;;;2;261080671;261080671;-85
2022/03/26 20:48:32;;;;;;;;;29.00;26.00;;;;;;;;2;261076127;261076127;-85
2022/03/26 20:57:33;;;;;;;;;25.50;20.50;;;;;;;;2;261082369;261082369;-86
2022/03/26 21:05:49;;;;;;;;;28.00;27.50;;;;;;;;2;261076263;261076263;-86
2022/03/26 21:14:49;;;;;;;;;56.00;35.50;;;;;;;;2;261078057;261078057;-84
2022/03/26 21:23:08;;;;;;;;;41.50;33.50;;;;;;;;2;261081569;261081569;-85
2022/03/26 21:32:09;;;;;;;;;38.00;25.50;;;;;;;;2;261078142;261078142;-84
2022/03/26 21:40:24;;;;;;;;;42.00;21.50;;;;;;;;2;261081554;261081554;-84
2022/03/26 21:49:24;;;;;;;;;40.50;33.50;;;;;;;;2;261079627;261079627;-83
2022/03/26 21:57:41;;;;;;;;;38.50;26.50;;;;;;;;2;261077083;261077083;-84
2022/03/26 22:06:41;;;;;;;;;44.00;34.50;;;;;;;;2;261078770;261078770;-83
2022/03/26 22:14:57;;;;;;;;;38.00;25.50;;;;;;;;2;261076846;261076846;-83
2022/03/26 22:23:58;;;;;;;;;41.00;31.00;;;;;;;;2;261075172;261075172;-84
2022/03/26 22:35:32;;;;;;;;;38.00;25.50;;;;;;;;2;261078746;261078746;-84
2022/03/26 22:44:33;;;;;;;;;22.00;19.00;;;;;;;;2;261079123;261079123;-84
2022/03/26 22:52:49;;;;;;;;;52.00;35.50;;;;;;;;2;261077919;261077919;-84
2022/03/26 23:02:00;;;;;;;;;41.00;29.00;;;;;;;;2;261078632;261078632;-84
2022/03/26 23:10:16;;;;;;;;;46.00;34.50;;;;;;;;2;261075752;261075752;-84
2022/03/26 23:19:17;;;;;;;;;59.00;36.50;;;;;;;;2;261075735;261075735;-81
2022/03/26 23:27:36;;;;;;;;;28.00;27.50;;;;;;;;2;261077599;261077599;-85
2022/03/26 23:36:37;;;;;;;;;49.50;36.50;;;;;;;;2;261076753;261076753;-86
2022/03/26 23:44:52;;;;;;;;;43.00;24.00;;;;;;;;2;261077706;261077706;-85
2022/03/26 23:53:53;;;;;;;;;26.00;25.50;;;;;;;;2;261078420;261078420;-81
